GLO1800 SBCF-SBMO
Flight info
| Callsign | GLO1800 |
|---|---|
| Flight time | 1h 54m |
| Altitude | 37000 |
| Route | ILPIR UZ23 ANDIG |
| Aircraft | B737/M-SDE2E3FGHIRWXY/LB1 |
Departure
| Time | 2026-04-25 19:31 |
|---|---|
| Airport | Tancredo Neves International Airport (SBCF) |
Arrival
| Time | 2026-04-25 21:25 |
|---|---|
| Airport | Zumbi dos Palmares International Airport (SBMO) |
| Time | Latitude | Longitude | Altitude | Speed | Heading |
|---|---|---|---|---|---|
| 2026-04-25 18:41 | -19.62892 | -43.96785 | 2818 ft | 0 kts | 50° |
| 2026-04-25 19:15 | -19.62896 | -43.96790 | 2816 ft | 2 kts | 51° |
| 2026-04-25 19:15 | -19.62906 | -43.96804 | 2818 ft | 2 kts | 53° |
| 2026-04-25 19:16 | -19.62915 | -43.96818 | 2815 ft | 2 kts | 62° |
| 2026-04-25 19:16 | -19.62919 | -43.96835 | 2820 ft | 2 kts | 122° |
| 2026-04-25 19:16 | -19.62913 | -43.96842 | 2819 ft | 0 kts | 139° |
| 2026-04-25 19:16 | -19.62912 | -43.96843 | 2819 ft | 0 kts | 139° |
| 2026-04-25 19:23 | -19.62920 | -43.96836 | 2820 ft | 5 kts | 139° |
| 2026-04-25 19:23 | -19.62930 | -43.96826 | 2811 ft | 0 kts | 139° |
| 2026-04-25 19:25 | -19.62945 | -43.96812 | 2812 ft | 6 kts | 139° |
| 2026-04-25 19:26 | -19.62992 | -43.96769 | 2811 ft | 14 kts | 139° |
| 2026-04-25 19:26 | -19.63056 | -43.96711 | 2811 ft | 11 kts | 140° |
| 2026-04-25 19:26 | -19.63113 | -43.96660 | 2811 ft | 11 kts | 139° |
| 2026-04-25 19:26 | -19.63172 | -43.96614 | 2811 ft | 10 kts | 165° |
| 2026-04-25 19:27 | -19.63226 | -43.96662 | 2810 ft | 12 kts | 229° |
| 2026-04-25 19:27 | -19.63245 | -43.96685 | 2809 ft | 12 kts | 229° |
| 2026-04-25 19:27 | -19.63360 | -43.96658 | 2809 ft | 12 kts | 139° |
| 2026-04-25 19:27 | -19.63438 | -43.96586 | 2809 ft | 18 kts | 139° |
| 2026-04-25 19:28 | -19.63534 | -43.96498 | 2809 ft | 18 kts | 139° |
| 2026-04-25 19:28 | -19.63651 | -43.96390 | 2809 ft | 26 kts | 139° |
| 2026-04-25 19:28 | -19.63787 | -43.96264 | 2809 ft | 25 kts | 139° |
| 2026-04-25 19:28 | -19.63926 | -43.96135 | 2809 ft | 31 kts | 139° |
| 2026-04-25 19:29 | -19.64104 | -43.95971 | 2809 ft | 34 kts | 138° |
| 2026-04-25 19:29 | -19.64247 | -43.95840 | 2808 ft | 17 kts | 147° |
| 2026-04-25 19:29 | -19.64317 | -43.95865 | 2809 ft | 0 kts | 229° |
| 2026-04-25 19:30 | -19.64322 | -43.95872 | 2808 ft | 4 kts | 229° |
| 2026-04-25 19:30 | -19.64350 | -43.95905 | 2807 ft | 13 kts | 229° |
| 2026-04-25 19:30 | -19.64303 | -43.96015 | 2808 ft | 28 kts | 319° |
| 2026-04-25 19:30 | -19.64103 | -43.96200 | 2809 ft | 86 kts | 319° |
| 2026-04-25 19:31 | -19.63145 | -43.97090 | 2889 ft | 176 kts | 318° |
| 2026-04-25 19:31 | -19.62208 | -43.97951 | 3772 ft | 174 kts | 315° |
| 2026-04-25 19:31 | -19.61345 | -43.98799 | 5005 ft | 167 kts | 312° |
| 2026-04-25 19:31 | -19.60485 | -43.99717 | 5732 ft | 189 kts | 311° |
| 2026-04-25 19:32 | -19.59838 | -44.00430 | 5961 ft | 214 kts | 312° |
| 2026-04-25 19:32 | -19.58713 | -44.01673 | 6326 ft | 248 kts | 312° |
| 2026-04-25 19:32 | -19.57502 | -44.03004 | 7309 ft | 251 kts | 312° |
| 2026-04-25 19:32 | -19.56678 | -44.03909 | 7702 ft | 257 kts | 312° |
| 2026-04-25 19:33 | -19.54930 | -44.05600 | 8992 ft | 258 kts | 330° |
| 2026-04-25 19:33 | -19.53193 | -44.06142 | 9762 ft | 265 kts | 356° |
| 2026-04-25 19:33 | -19.51415 | -44.05814 | 10048 ft | 268 kts | 23° |
| 2026-04-25 19:33 | -19.49881 | -44.04633 | 10052 ft | 278 kts | 49° |
| 2026-04-25 19:34 | -19.48988 | -44.02830 | 10056 ft | 281 kts | 74° |
| 2026-04-25 19:34 | -19.48692 | -44.00787 | 10067 ft | 279 kts | 84° |
| 2026-04-25 19:34 | -19.48535 | -43.98760 | 10066 ft | 277 kts | 85° |
| 2026-04-25 19:34 | -19.48388 | -43.96708 | 10214 ft | 281 kts | 84° |
| 2026-04-25 19:35 | -19.48228 | -43.94639 | 11014 ft | 283 kts | 85° |
| 2026-04-25 19:35 | -19.48055 | -43.92552 | 12034 ft | 285 kts | 85° |
| 2026-04-25 19:35 | -19.47870 | -43.90429 | 12921 ft | 292 kts | 85° |
| 2026-04-25 19:35 | -19.47678 | -43.88262 | 13872 ft | 297 kts | 85° |
| 2026-04-25 19:36 | -19.47425 | -43.86082 | 14723 ft | 301 kts | 76° |
| 2026-04-25 19:36 | -19.46653 | -43.83977 | 15208 ft | 323 kts | 65° |
| 2026-04-25 19:36 | -19.45616 | -43.81728 | 15383 ft | 353 kts | 63° |
| 2026-04-25 19:36 | -19.44480 | -43.79324 | 15770 ft | 372 kts | 64° |
| 2026-04-25 19:37 | -19.43327 | -43.76842 | 16464 ft | 379 kts | 64° |
| 2026-04-25 19:37 | -19.42178 | -43.74316 | 17322 ft | 381 kts | 64° |
| 2026-04-25 19:37 | -19.41051 | -43.71806 | 18152 ft | 384 kts | 64° |
| 2026-04-25 19:37 | -19.39903 | -43.69220 | 18844 ft | 388 kts | 66° |
| 2026-04-25 19:38 | -19.38873 | -43.66556 | 19533 ft | 392 kts | 69° |
| 2026-04-25 19:38 | -19.37907 | -43.63823 | 20094 ft | 400 kts | 70° |
| 2026-04-25 19:38 | -19.36954 | -43.61074 | 20725 ft | 404 kts | 70° |
| 2026-04-25 19:38 | -19.35975 | -43.58275 | 21404 ft | 407 kts | 70° |
| 2026-04-25 19:39 | -19.34969 | -43.55439 | 22003 ft | 412 kts | 70° |
| 2026-04-25 19:39 | -19.33943 | -43.52579 | 22619 ft | 417 kts | 70° |
| 2026-04-25 19:39 | -19.32902 | -43.49692 | 23198 ft | 421 kts | 70° |
| 2026-04-25 19:39 | -19.31848 | -43.46816 | 23748 ft | 426 kts | 66° |
| 2026-04-25 19:40 | -19.30270 | -43.44147 | 24223 ft | 431 kts | 48° |
| 2026-04-25 19:40 | -19.28010 | -43.42046 | 24776 ft | 432 kts | 37° |
| 2026-04-25 19:40 | -19.25595 | -43.40131 | 25312 ft | 435 kts | 36° |
| 2026-04-25 19:40 | -19.23131 | -43.38234 | 25787 ft | 439 kts | 35° |
| 2026-04-25 19:41 | -19.20676 | -43.36347 | 26262 ft | 442 kts | 36° |
| 2026-04-25 19:41 | -19.18179 | -43.34412 | 26773 ft | 445 kts | 36° |
| 2026-04-25 19:41 | -19.15674 | -43.32453 | 27273 ft | 448 kts | 36° |
| 2026-04-25 19:41 | -19.14017 | -43.31149 | 27595 ft | 450 kts | 36° |
| 2026-04-25 19:42 | -19.10634 | -43.28473 | 28237 ft | 455 kts | 36° |
| 2026-04-25 19:42 | -19.08154 | -43.26508 | 28683 ft | 458 kts | 36° |
| 2026-04-25 19:42 | -19.05593 | -43.24478 | 29143 ft | 461 kts | 36° |
| 2026-04-25 19:42 | -19.03000 | -43.22424 | 29590 ft | 464 kts | 36° |
| 2026-04-25 19:43 | -19.00431 | -43.20390 | 30018 ft | 467 kts | 36° |
| 2026-04-25 19:43 | -18.97806 | -43.18313 | 30386 ft | 470 kts | 36° |
| 2026-04-25 19:43 | -18.95180 | -43.16236 | 30849 ft | 470 kts | 36° |
| 2026-04-25 19:43 | -18.92565 | -43.14169 | 31452 ft | 467 kts | 36° |
| 2026-04-25 19:44 | -18.89969 | -43.12118 | 32107 ft | 463 kts | 36° |
| 2026-04-25 19:44 | -18.87425 | -43.10108 | 32699 ft | 460 kts | 36° |
| 2026-04-25 19:44 | -18.84852 | -43.08076 | 33255 ft | 460 kts | 36° |
| 2026-04-25 19:44 | -18.82294 | -43.06058 | 33835 ft | 457 kts | 36° |
| 2026-04-25 19:45 | -18.79787 | -43.04080 | 34433 ft | 453 kts | 36° |
| 2026-04-25 19:45 | -18.77263 | -43.02090 | 34963 ft | 450 kts | 36° |
| 2026-04-25 19:45 | -18.74750 | -43.00111 | 35384 ft | 450 kts | 36° |
| 2026-04-25 19:45 | -18.72236 | -42.98132 | 35772 ft | 450 kts | 36° |
| 2026-04-25 19:46 | -18.69756 | -42.96180 | 36193 ft | 448 kts | 36° |
| 2026-04-25 19:46 | -18.67256 | -42.94212 | 36660 ft | 446 kts | 36° |
| 2026-04-25 19:46 | -18.64771 | -42.92257 | 37006 ft | 447 kts | 36° |
| 2026-04-25 19:46 | -18.62279 | -42.90297 | 36979 ft | 451 kts | 36° |
| 2026-04-25 19:47 | -18.57265 | -42.86353 | 36989 ft | 446 kts | 36° |
| 2026-04-25 19:47 | -18.52299 | -42.82451 | 37002 ft | 443 kts | 36° |
| 2026-04-25 19:48 | -18.47355 | -42.78568 | 37018 ft | 451 kts | 36° |
| 2026-04-25 19:48 | -18.42216 | -42.74534 | 37017 ft | 467 kts | 36° |
| 2026-04-25 19:49 | -18.37837 | -42.71096 | 37006 ft | 475 kts | 36° |
| 2026-04-25 19:49 | -18.31669 | -42.66255 | 36984 ft | 474 kts | 36° |
| 2026-04-25 19:50 | -18.23768 | -42.60063 | 36987 ft | 472 kts | 36° |
| 2026-04-25 19:51 | -18.18490 | -42.55931 | 36985 ft | 471 kts | 36° |
| 2026-04-25 19:51 | -18.13244 | -42.51827 | 36988 ft | 470 kts | 36° |
| 2026-04-25 19:52 | -18.08013 | -42.47738 | 36997 ft | 469 kts | 36° |
| 2026-04-25 19:52 | -18.02766 | -42.43639 | 36987 ft | 469 kts | 36° |
| 2026-04-25 19:53 | -17.97554 | -42.39571 | 36996 ft | 469 kts | 36° |
| 2026-04-25 19:53 | -17.92331 | -42.35498 | 36997 ft | 469 kts | 36° |
| 2026-04-25 19:54 | -17.87084 | -42.31409 | 36998 ft | 469 kts | 36° |
| 2026-04-25 19:54 | -17.81829 | -42.27316 | 37004 ft | 469 kts | 36° |
| 2026-04-25 19:55 | -17.76592 | -42.23241 | 37000 ft | 470 kts | 36° |
| 2026-04-25 19:55 | -17.71353 | -42.19167 | 37002 ft | 470 kts | 36° |
| 2026-04-25 19:56 | -17.66090 | -42.15078 | 37010 ft | 471 kts | 36° |
| 2026-04-25 19:56 | -17.60802 | -42.10971 | 37008 ft | 471 kts | 36° |
| 2026-04-25 19:57 | -17.55542 | -42.06890 | 37007 ft | 472 kts | 36° |
| 2026-04-25 19:57 | -17.50295 | -42.02820 | 37010 ft | 472 kts | 36° |
| 2026-04-25 19:58 | -17.44990 | -41.98710 | 37010 ft | 472 kts | 36° |
| 2026-04-25 19:58 | -17.39735 | -41.94638 | 37002 ft | 472 kts | 36° |
| 2026-04-25 19:59 | -17.34438 | -41.90534 | 37004 ft | 472 kts | 36° |
| 2026-04-25 19:59 | -17.29174 | -41.86458 | 37002 ft | 472 kts | 36° |
| 2026-04-25 20:00 | -17.23885 | -41.82365 | 37004 ft | 472 kts | 36° |
| 2026-04-25 20:00 | -17.18633 | -41.78304 | 37005 ft | 472 kts | 36° |
| 2026-04-25 20:01 | -17.10695 | -41.72171 | 37005 ft | 472 kts | 36° |
| 2026-04-25 20:01 | -17.05427 | -41.68105 | 37003 ft | 471 kts | 36° |
| 2026-04-25 20:02 | -17.00175 | -41.64054 | 37002 ft | 471 kts | 36° |
| 2026-04-25 20:02 | -16.94889 | -41.59980 | 37004 ft | 471 kts | 36° |
| 2026-04-25 20:03 | -16.89626 | -41.55926 | 37007 ft | 470 kts | 36° |
| 2026-04-25 20:03 | -16.84378 | -41.51887 | 37004 ft | 470 kts | 36° |
| 2026-04-25 20:04 | -16.79120 | -41.47842 | 36998 ft | 470 kts | 36° |
| 2026-04-25 20:04 | -16.73840 | -41.43783 | 37003 ft | 470 kts | 36° |
| 2026-04-25 20:05 | -16.68556 | -41.39722 | 37002 ft | 470 kts | 36° |
| 2026-04-25 20:05 | -16.63314 | -41.35662 | 37002 ft | 470 kts | 36° |
| 2026-04-25 20:06 | -16.58100 | -41.31612 | 36997 ft | 470 kts | 36° |
| 2026-04-25 20:06 | -16.52829 | -41.27523 | 37002 ft | 470 kts | 36° |
| 2026-04-25 20:07 | -16.47608 | -41.23478 | 36999 ft | 470 kts | 36° |
| 2026-04-25 20:07 | -16.42353 | -41.19410 | 37005 ft | 470 kts | 36° |
| 2026-04-25 20:08 | -16.37112 | -41.15357 | 37004 ft | 470 kts | 36° |
| 2026-04-25 20:08 | -16.31842 | -41.11284 | 37005 ft | 470 kts | 36° |
| 2026-04-25 20:09 | -16.26588 | -41.07225 | 37007 ft | 470 kts | 36° |
| 2026-04-25 20:09 | -16.21341 | -41.03176 | 37010 ft | 470 kts | 37° |
| 2026-04-25 20:10 | -16.16067 | -40.99108 | 37013 ft | 470 kts | 37° |
| 2026-04-25 20:10 | -16.10838 | -40.95077 | 37014 ft | 470 kts | 36° |
| 2026-04-25 20:11 | -16.05565 | -40.91016 | 37016 ft | 469 kts | 36° |
| 2026-04-25 20:11 | -16.00324 | -40.86981 | 37023 ft | 469 kts | 37° |
| 2026-04-25 20:12 | -15.95104 | -40.82965 | 37018 ft | 469 kts | 37° |
| 2026-04-25 20:12 | -15.91592 | -40.80265 | 37014 ft | 468 kts | 37° |
| 2026-04-25 20:13 | -15.84646 | -40.74928 | 37019 ft | 468 kts | 37° |
| 2026-04-25 20:13 | -15.79413 | -40.70911 | 37017 ft | 467 kts | 37° |
| 2026-04-25 20:14 | -15.74176 | -40.66893 | 37019 ft | 467 kts | 37° |
| 2026-04-25 20:14 | -15.68973 | -40.62903 | 37018 ft | 467 kts | 37° |
| 2026-04-25 20:15 | -15.63749 | -40.58901 | 37017 ft | 467 kts | 37° |
| 2026-04-25 20:15 | -15.58514 | -40.54892 | 37014 ft | 467 kts | 37° |
| 2026-04-25 20:16 | -15.53305 | -40.50905 | 37025 ft | 466 kts | 37° |
| 2026-04-25 20:16 | -15.48070 | -40.46899 | 37008 ft | 466 kts | 37° |
| 2026-04-25 20:17 | -15.42869 | -40.42926 | 37012 ft | 466 kts | 37° |
| 2026-04-25 20:17 | -15.37644 | -40.38934 | 37014 ft | 466 kts | 37° |
| 2026-04-25 20:18 | -15.32443 | -40.34963 | 37019 ft | 465 kts | 37° |
| 2026-04-25 20:18 | -15.27214 | -40.30975 | 37012 ft | 465 kts | 37° |
| 2026-04-25 20:19 | -15.22023 | -40.27019 | 37014 ft | 464 kts | 38° |
| 2026-04-25 20:19 | -15.16834 | -40.23068 | 37011 ft | 464 kts | 37° |
| 2026-04-25 20:20 | -15.11615 | -40.19097 | 37020 ft | 464 kts | 37° |
| 2026-04-25 20:20 | -15.07308 | -40.15820 | 37026 ft | 464 kts | 37° |
| 2026-04-25 20:21 | -15.02118 | -40.11871 | 37019 ft | 464 kts | 37° |
| 2026-04-25 20:21 | -14.96912 | -40.07914 | 37018 ft | 464 kts | 37° |
| 2026-04-25 20:22 | -14.92569 | -40.04616 | 37022 ft | 463 kts | 37° |
| 2026-04-25 20:22 | -14.86507 | -40.00014 | 37021 ft | 464 kts | 37° |
| 2026-04-25 20:23 | -14.81324 | -39.96082 | 37026 ft | 463 kts | 37° |
| 2026-04-25 20:23 | -14.76129 | -39.92144 | 37023 ft | 463 kts | 37° |
| 2026-04-25 20:24 | -14.70915 | -39.88193 | 37026 ft | 463 kts | 37° |
| 2026-04-25 20:24 | -14.65740 | -39.84275 | 37018 ft | 463 kts | 37° |
| 2026-04-25 20:25 | -14.60548 | -39.80345 | 37021 ft | 463 kts | 37° |
| 2026-04-25 20:25 | -14.55363 | -39.76423 | 37022 ft | 462 kts | 37° |
| 2026-04-25 20:26 | -14.50155 | -39.72486 | 37021 ft | 463 kts | 37° |
| 2026-04-25 20:26 | -14.44984 | -39.68580 | 37021 ft | 463 kts | 38° |
| 2026-04-25 20:27 | -14.39768 | -39.64641 | 37015 ft | 463 kts | 37° |
| 2026-04-25 20:27 | -14.34587 | -39.60730 | 37003 ft | 462 kts | 37° |
| 2026-04-25 20:28 | -14.29380 | -39.56808 | 37008 ft | 461 kts | 37° |
| 2026-04-25 20:28 | -14.24194 | -39.52922 | 37007 ft | 461 kts | 37° |
| 2026-04-25 20:29 | -14.19015 | -39.49045 | 37013 ft | 461 kts | 37° |
| 2026-04-25 20:29 | -14.13812 | -39.45150 | 37020 ft | 461 kts | 37° |
| 2026-04-25 20:30 | -14.08641 | -39.41279 | 37008 ft | 460 kts | 37° |
| 2026-04-25 20:30 | -14.03464 | -39.37407 | 37008 ft | 460 kts | 37° |
| 2026-04-25 20:31 | -13.98303 | -39.33547 | 37007 ft | 459 kts | 37° |
| 2026-04-25 20:31 | -13.93102 | -39.29660 | 37007 ft | 459 kts | 37° |
| 2026-04-25 20:32 | -13.87959 | -39.25819 | 37009 ft | 459 kts | 37° |
| 2026-04-25 20:32 | -13.82773 | -39.21948 | 36999 ft | 459 kts | 37° |
| 2026-04-25 20:33 | -13.77627 | -39.18109 | 37010 ft | 458 kts | 37° |
| 2026-04-25 20:33 | -13.73325 | -39.14900 | 37004 ft | 458 kts | 37° |
| 2026-04-25 20:34 | -13.67304 | -39.10413 | 36992 ft | 458 kts | 37° |
| 2026-04-25 20:34 | -13.62149 | -39.06572 | 37003 ft | 457 kts | 37° |
| 2026-04-25 20:35 | -13.57013 | -39.02753 | 36995 ft | 457 kts | 37° |
| 2026-04-25 20:35 | -13.51833 | -38.98922 | 36996 ft | 457 kts | 37° |
| 2026-04-25 20:36 | -13.46679 | -38.95115 | 36995 ft | 456 kts | 37° |
| 2026-04-25 20:36 | -13.41536 | -38.91314 | 36995 ft | 456 kts | 37° |
| 2026-04-25 20:37 | -13.36397 | -38.87518 | 36993 ft | 456 kts | 37° |
| 2026-04-25 20:37 | -13.31218 | -38.83693 | 36995 ft | 456 kts | 37° |
| 2026-04-25 20:38 | -13.26089 | -38.79908 | 36996 ft | 456 kts | 37° |
| 2026-04-25 20:38 | -13.20932 | -38.76103 | 36996 ft | 456 kts | 37° |
| 2026-04-25 20:39 | -13.15814 | -38.72330 | 36995 ft | 455 kts | 37° |
| 2026-04-25 20:39 | -13.11498 | -38.69149 | 36994 ft | 455 kts | 37° |
| 2026-04-25 20:40 | -13.05504 | -38.64734 | 36989 ft | 455 kts | 37° |
| 2026-04-25 20:40 | -13.00378 | -38.60962 | 36994 ft | 455 kts | 37° |
| 2026-04-25 20:41 | -12.95224 | -38.57170 | 36995 ft | 455 kts | 37° |
| 2026-04-25 20:41 | -12.90096 | -38.53398 | 36995 ft | 455 kts | 37° |
| 2026-04-25 20:42 | -12.84938 | -38.49607 | 36992 ft | 456 kts | 37° |
| 2026-04-25 20:42 | -12.79776 | -38.45815 | 36990 ft | 455 kts | 37° |
| 2026-04-25 20:43 | -12.74648 | -38.42050 | 36975 ft | 455 kts | 37° |
| 2026-04-25 20:43 | -12.69481 | -38.38258 | 36982 ft | 456 kts | 37° |
| 2026-04-25 20:44 | -12.64348 | -38.34493 | 36994 ft | 456 kts | 36° |
| 2026-04-25 20:44 | -12.59188 | -38.30710 | 36994 ft | 456 kts | 36° |
| 2026-04-25 20:45 | -12.54025 | -38.26927 | 36995 ft | 456 kts | 36° |
| 2026-04-25 20:45 | -12.48853 | -38.23139 | 36995 ft | 456 kts | 36° |
| 2026-04-25 20:46 | -12.43705 | -38.19370 | 36993 ft | 456 kts | 36° |
| 2026-04-25 20:46 | -12.38539 | -38.15590 | 36992 ft | 456 kts | 36° |
| 2026-04-25 20:47 | -12.33369 | -38.11807 | 36991 ft | 456 kts | 36° |
| 2026-04-25 20:47 | -12.28231 | -38.08052 | 36987 ft | 456 kts | 36° |
| 2026-04-25 20:48 | -12.23057 | -38.04276 | 36989 ft | 457 kts | 36° |
| 2026-04-25 20:48 | -12.17905 | -38.00518 | 36992 ft | 457 kts | 36° |
| 2026-04-25 20:49 | -12.12707 | -37.96727 | 36986 ft | 457 kts | 36° |
| 2026-04-25 20:49 | -12.07529 | -37.92953 | 36983 ft | 457 kts | 36° |
| 2026-04-25 20:50 | -12.02375 | -37.89197 | 36986 ft | 457 kts | 36° |
| 2026-04-25 20:50 | -11.97189 | -37.85419 | 36988 ft | 457 kts | 36° |
| 2026-04-25 20:51 | -11.92029 | -37.81661 | 36983 ft | 457 kts | 36° |
| 2026-04-25 20:51 | -11.86839 | -37.77885 | 36984 ft | 457 kts | 36° |
| 2026-04-25 20:52 | -11.82532 | -37.74762 | 36978 ft | 457 kts | 36° |
| 2026-04-25 20:52 | -11.76473 | -37.70372 | 36978 ft | 456 kts | 36° |
| 2026-04-25 20:53 | -11.71319 | -37.66638 | 36982 ft | 456 kts | 36° |
| 2026-04-25 20:53 | -11.66128 | -37.62877 | 36981 ft | 456 kts | 36° |
| 2026-04-25 20:54 | -11.60969 | -37.59140 | 36979 ft | 456 kts | 36° |
| 2026-04-25 20:54 | -11.55790 | -37.55392 | 36976 ft | 455 kts | 36° |
| 2026-04-25 20:55 | -11.50638 | -37.51665 | 36979 ft | 455 kts | 36° |
| 2026-04-25 20:55 | -11.45470 | -37.47927 | 36978 ft | 455 kts | 36° |
| 2026-04-25 20:56 | -11.40299 | -37.44189 | 36980 ft | 454 kts | 36° |
| 2026-04-25 20:56 | -11.35160 | -37.40476 | 36977 ft | 454 kts | 35° |
| 2026-04-25 20:57 | -11.29997 | -37.36748 | 36977 ft | 454 kts | 35° |
| 2026-04-25 20:57 | -11.24834 | -37.33021 | 36974 ft | 454 kts | 35° |
| 2026-04-25 20:58 | -11.19702 | -37.29317 | 36970 ft | 454 kts | 35° |
| 2026-04-25 20:58 | -11.14529 | -37.25586 | 36960 ft | 454 kts | 35° |
| 2026-04-25 20:59 | -11.09397 | -37.21886 | 36953 ft | 454 kts | 35° |
| 2026-04-25 20:59 | -11.04226 | -37.18158 | 36944 ft | 454 kts | 35° |
| 2026-04-25 21:00 | -11.00810 | -37.15697 | 36937 ft | 454 kts | 35° |
| 2026-04-25 21:01 | -10.91337 | -37.08905 | 36943 ft | 454 kts | 35° |
| 2026-04-25 21:01 | -10.86160 | -37.05199 | 36944 ft | 454 kts | 35° |
| 2026-04-25 21:02 | -10.80986 | -37.01493 | 36968 ft | 454 kts | 35° |
| 2026-04-25 21:02 | -10.75840 | -36.97809 | 36964 ft | 455 kts | 35° |
| 2026-04-25 21:03 | -10.70653 | -36.94096 | 36970 ft | 455 kts | 35° |
| 2026-04-25 21:03 | -10.65494 | -36.90406 | 36834 ft | 458 kts | 35° |
| 2026-04-25 21:03 | -10.62866 | -36.88525 | 36186 ft | 462 kts | 36° |
| 2026-04-25 21:04 | -10.60247 | -36.86653 | 35464 ft | 460 kts | 36° |
| 2026-04-25 21:04 | -10.57632 | -36.84784 | 34668 ft | 460 kts | 36° |
| 2026-04-25 21:04 | -10.55003 | -36.82905 | 33781 ft | 463 kts | 36° |
| 2026-04-25 21:04 | -10.52358 | -36.81015 | 32811 ft | 465 kts | 36° |
| 2026-04-25 21:05 | -10.49707 | -36.79120 | 31865 ft | 466 kts | 37° |
| 2026-04-25 21:05 | -10.47082 | -36.77245 | 30890 ft | 468 kts | 37° |
| 2026-04-25 21:05 | -10.44409 | -36.75336 | 29833 ft | 471 kts | 37° |
| 2026-04-25 21:05 | -10.41716 | -36.73413 | 28662 ft | 473 kts | 37° |
| 2026-04-25 21:06 | -10.39041 | -36.71504 | 27901 ft | 465 kts | 37° |
| 2026-04-25 21:06 | -10.36412 | -36.69629 | 27120 ft | 458 kts | 37° |
| 2026-04-25 21:06 | -10.33818 | -36.67779 | 26365 ft | 452 kts | 37° |
| 2026-04-25 21:06 | -10.32983 | -36.67184 | 26121 ft | 450 kts | 37° |
| 2026-04-25 21:07 | -10.28731 | -36.64151 | 24843 ft | 441 kts | 37° |
| 2026-04-25 21:07 | -10.26230 | -36.62366 | 24090 ft | 437 kts | 37° |
| 2026-04-25 21:07 | -10.23781 | -36.60620 | 23308 ft | 433 kts | 37° |
| 2026-04-25 21:07 | -10.21327 | -36.58869 | 22468 ft | 428 kts | 37° |
| 2026-04-25 21:08 | -10.18909 | -36.57145 | 21712 ft | 421 kts | 36° |
| 2026-04-25 21:08 | -10.16528 | -36.55449 | 20972 ft | 415 kts | 36° |
| 2026-04-25 21:08 | -10.14208 | -36.53722 | 20238 ft | 409 kts | 39° |
| 2026-04-25 21:08 | -10.12749 | -36.52520 | 19751 ft | 406 kts | 40° |
| 2026-04-25 21:09 | -10.07819 | -36.48235 | 18045 ft | 396 kts | 41° |
| 2026-04-25 21:09 | -10.05736 | -36.46411 | 17258 ft | 392 kts | 41° |
| 2026-04-25 21:09 | -10.03677 | -36.44617 | 16528 ft | 387 kts | 41° |
| 2026-04-25 21:10 | -10.02324 | -36.43444 | 16056 ft | 384 kts | 41° |
| 2026-04-25 21:10 | -10.00299 | -36.41695 | 15362 ft | 380 kts | 41° |
| 2026-04-25 21:10 | -9.98296 | -36.39968 | 14660 ft | 376 kts | 41° |
| 2026-04-25 21:10 | -9.96300 | -36.38251 | 13968 ft | 374 kts | 41° |
| 2026-04-25 21:11 | -9.94343 | -36.36568 | 13226 ft | 371 kts | 41° |
| 2026-04-25 21:11 | -9.92376 | -36.34878 | 12521 ft | 367 kts | 41° |
| 2026-04-25 21:11 | -9.90434 | -36.33209 | 11839 ft | 363 kts | 41° |
| 2026-04-25 21:11 | -9.88512 | -36.31558 | 11167 ft | 359 kts | 41° |
| 2026-04-25 21:12 | -9.86617 | -36.29931 | 10755 ft | 349 kts | 41° |
| 2026-04-25 21:12 | -9.84825 | -36.28393 | 10528 ft | 333 kts | 41° |
| 2026-04-25 21:12 | -9.83093 | -36.26908 | 10380 ft | 317 kts | 41° |
| 2026-04-25 21:12 | -9.81993 | -36.25963 | 10291 ft | 308 kts | 41° |
| 2026-04-25 21:13 | -9.79868 | -36.24140 | 10108 ft | 290 kts | 41° |
| 2026-04-25 21:13 | -9.78370 | -36.22854 | 9976 ft | 279 kts | 41° |
| 2026-04-25 21:13 | -9.76891 | -36.21583 | 9620 ft | 277 kts | 42° |
| 2026-04-25 21:13 | -9.75420 | -36.20320 | 9274 ft | 275 kts | 42° |
| 2026-04-25 21:14 | -9.73982 | -36.19086 | 8928 ft | 273 kts | 42° |
| 2026-04-25 21:14 | -9.72537 | -36.17845 | 8581 ft | 271 kts | 42° |
| 2026-04-25 21:14 | -9.71094 | -36.16606 | 8232 ft | 270 kts | 42° |
| 2026-04-25 21:14 | -9.69674 | -36.15388 | 7884 ft | 268 kts | 43° |
| 2026-04-25 21:15 | -9.68245 | -36.14162 | 7534 ft | 267 kts | 43° |
| 2026-04-25 21:15 | -9.66831 | -36.12949 | 7188 ft | 265 kts | 43° |
| 2026-04-25 21:15 | -9.65425 | -36.11743 | 6863 ft | 264 kts | 43° |
| 2026-04-25 21:15 | -9.64037 | -36.10553 | 6520 ft | 264 kts | 43° |
| 2026-04-25 21:16 | -9.62635 | -36.09350 | 6161 ft | 263 kts | 43° |
| 2026-04-25 21:16 | -9.61243 | -36.08157 | 5859 ft | 254 kts | 43° |
| 2026-04-25 21:16 | -9.59952 | -36.07055 | 5734 ft | 231 kts | 44° |
| 2026-04-25 21:16 | -9.58777 | -36.06050 | 5586 ft | 210 kts | 44° |
| 2026-04-25 21:17 | -9.57720 | -36.05147 | 5457 ft | 192 kts | 44° |
| 2026-04-25 21:17 | -9.56739 | -36.04309 | 5320 ft | 177 kts | 44° |
| 2026-04-25 21:17 | -9.55789 | -36.03524 | 5041 ft | 176 kts | 38° |
| 2026-04-25 21:17 | -9.54740 | -36.02883 | 4701 ft | 173 kts | 34° |
| 2026-04-25 21:18 | -9.53738 | -36.02300 | 4450 ft | 163 kts | 35° |
| 2026-04-25 21:18 | -9.52814 | -36.01761 | 4233 ft | 147 kts | 35° |
| 2026-04-25 21:18 | -9.51950 | -36.01250 | 4182 ft | 146 kts | 35° |
| 2026-04-25 21:18 | -9.51069 | -36.00725 | 4111 ft | 150 kts | 35° |
| 2026-04-25 21:19 | -9.50178 | -36.00196 | 4031 ft | 147 kts | 35° |
| 2026-04-25 21:19 | -9.49278 | -35.99659 | 3980 ft | 152 kts | 35° |
| 2026-04-25 21:19 | -9.48362 | -35.99112 | 3922 ft | 153 kts | 35° |
| 2026-04-25 21:19 | -9.47618 | -35.98393 | 3741 ft | 146 kts | 76° |
| 2026-04-25 21:20 | -9.47687 | -35.97454 | 3668 ft | 133 kts | 105° |
| 2026-04-25 21:20 | -9.47793 | -35.96847 | 3604 ft | 132 kts | 103° |
| 2026-04-25 21:20 | -9.48010 | -35.95598 | 3418 ft | 135 kts | 103° |
| 2026-04-25 21:20 | -9.48180 | -35.94671 | 3230 ft | 133 kts | 104° |
| 2026-04-25 21:21 | -9.48350 | -35.93764 | 3062 ft | 133 kts | 104° |
| 2026-04-25 21:21 | -9.48523 | -35.92839 | 2886 ft | 133 kts | 103° |
| 2026-04-25 21:21 | -9.48694 | -35.91920 | 2703 ft | 132 kts | 103° |
| 2026-04-25 21:21 | -9.48866 | -35.91004 | 2533 ft | 132 kts | 103° |
| 2026-04-25 21:22 | -9.49039 | -35.90084 | 2371 ft | 133 kts | 102° |
| 2026-04-25 21:22 | -9.49210 | -35.89171 | 2170 ft | 129 kts | 103° |
| 2026-04-25 21:22 | -9.49381 | -35.88257 | 1998 ft | 135 kts | 103° |
| 2026-04-25 21:22 | -9.49553 | -35.87334 | 1820 ft | 135 kts | 104° |
| 2026-04-25 21:23 | -9.49727 | -35.86404 | 1643 ft | 134 kts | 103° |
| 2026-04-25 21:23 | -9.49902 | -35.85474 | 1452 ft | 134 kts | 104° |
| 2026-04-25 21:23 | -9.50077 | -35.84542 | 1296 ft | 136 kts | 103° |
| 2026-04-25 21:23 | -9.50252 | -35.83606 | 1110 ft | 135 kts | 102° |
| 2026-04-25 21:24 | -9.50423 | -35.82692 | 926 ft | 135 kts | 101° |
| 2026-04-25 21:24 | -9.50598 | -35.81723 | 739 ft | 136 kts | 102° |
| 2026-04-25 21:24 | -9.50782 | -35.80792 | 529 ft | 133 kts | 100° |
| 2026-04-25 21:24 | -9.50950 | -35.79886 | 400 ft | 124 kts | 101° |
| 2026-04-25 21:25 | -9.51080 | -35.79193 | 398 ft | 78 kts | 101° |
| 2026-04-25 21:25 | -9.51213 | -35.78879 | 399 ft | 34 kts | 131° |
| 2026-04-25 21:25 | -9.51292 | -35.78812 | 400 ft | 2 kts | 207° |
| 2026-04-25 21:25 | -9.51305 | -35.78853 | 400 ft | 8 kts | 279° |
| 2026-04-25 21:26 | -9.51295 | -35.78918 | 400 ft | 10 kts | 278° |
| 2026-04-25 21:26 | -9.51292 | -35.78986 | 398 ft | 10 kts | 244° |
| 2026-04-25 21:26 | -9.51328 | -35.79016 | 400 ft | 5 kts | 213° |
| 2026-04-25 21:26 | -9.51354 | -35.79039 | 400 ft | 7 kts | 236° |
| 2026-04-25 21:27 | -9.51353 | -35.79107 | 400 ft | 11 kts | 281° |
| 2026-04-25 21:27 | -9.51370 | -35.79157 | 400 ft | 8 kts | 200° |
| 2026-04-25 21:27 | -9.51405 | -35.79164 | 400 ft | 4 kts | 192° |
| 2026-04-25 21:27 | -9.51417 | -35.79166 | 400 ft | 0 kts | 192° |